createdAt,value
2022-10-04T00:00:50.388Z,101743.50
2022-10-04T00:05:58.571Z,101741.72
2022-10-04T00:11:07.379Z,101748.84
2022-10-04T00:16:21.258Z,101745.34
2022-10-04T00:21:24.727Z,101744.38
2022-10-04T00:27:09.508Z,101751.56
2022-10-04T00:32:27.042Z,101749.78
2022-10-04T00:37:56.049Z,101752.44
2022-10-04T00:43:00.436Z,101755.09
2022-10-04T00:48:18.320Z,101753.31
2022-10-04T00:53:40.494Z,101748.84
2022-10-04T00:59:03.141Z,101747.16
2022-10-04T01:04:14.140Z,101749.81
2022-10-04T01:09:18.241Z,101747.16
2022-10-04T01:14:29.337Z,101755.16
2022-10-04T01:19:32.399Z,101754.28
2022-10-04T01:24:37.007Z,101753.41
2022-10-04T01:29:38.998Z,101753.44
2022-10-04T01:34:41.245Z,101753.47
2022-10-04T01:39:45.615Z,101745.47
2022-10-04T01:44:53.196Z,101736.59
2022-10-04T01:49:57.873Z,101742.91
2022-10-04T01:55:05.478Z,101739.34
2022-10-04T02:00:09.698Z,101733.16
2022-10-04T02:05:14.081Z,101729.63
2022-10-04T02:10:21.515Z,101734.03
2022-10-04T02:15:26.022Z,101722.59
2022-10-04T02:20:28.060Z,101726.91
2022-10-04T02:25:31.742Z,101728.72
2022-10-04T02:30:36.602Z,101729.63
2022-10-04T02:35:45.569Z,101727.84
2022-10-04T02:40:56.585Z,101731.41
2022-10-04T02:46:06.039Z,101731.41
2022-10-04T02:51:21.870Z,101719.00
2022-10-04T02:56:25.688Z,101718.13
2022-10-04T03:01:36.936Z,101719.00
2022-10-04T03:06:39.372Z,101713.72
2022-10-04T03:11:43.598Z,101720.88
2022-10-04T03:16:47.811Z,101717.31
2022-10-04T03:21:52.374Z,101714.63
2022-10-04T03:26:57.646Z,101717.38
2022-10-04T03:32:03.184Z,101715.59
2022-10-04T03:37:09.977Z,101716.50
2022-10-04T03:42:15.989Z,101721.81
2022-10-04T03:47:22.274Z,101709.44
2022-10-04T03:52:27.347Z,101707.69
2022-10-04T03:57:31.569Z,101714.75
2022-10-04T04:02:45.711Z,101713.00
2022-10-04T04:07:58.299Z,101724.50
2022-10-04T04:13:06.842Z,101721.84
2022-10-04T04:18:19.433Z,101716.53
2022-10-04T04:23:25.634Z,101720.97
2022-10-04T04:28:34.165Z,101719.19
2022-10-04T04:33:44.421Z,101724.53
2022-10-04T04:38:46.413Z,101724.56
2022-10-04T04:43:50.732Z,101723.66
2022-10-04T04:48:58.732Z,101729.00
2022-10-04T04:54:04.760Z,101733.41
2022-10-04T04:59:08.535Z,101729.88
2022-10-04T05:04:18.779Z,101732.50
2022-10-04T05:09:25.459Z,101722.78
2022-10-04T05:14:29.128Z,101735.16
2022-10-04T05:19:34.060Z,101731.63
2022-10-04T05:24:39.754Z,101729.81
2022-10-04T05:30:02.983Z,101736.94
2022-10-04T05:35:16.080Z,101732.44
2022-10-04T05:40:32.786Z,101745.75
2022-10-04T05:45:36.274Z,101743.97
2022-10-04T05:50:40.232Z,101745.69
2022-10-04T05:55:54.301Z,101754.56
2022-10-04T06:01:13.470Z,101748.31
2022-10-04T06:06:22.735Z,101747.47
2022-10-04T06:11:37.268Z,101752.72
2022-10-04T06:16:59.878Z,101760.72
2022-10-04T06:22:17.370Z,101761.53
2022-10-04T06:27:27.639Z,101757.13
2022-10-04T06:33:03.330Z,101761.59
2022-10-04T06:38:41.265Z,101760.59
2022-10-04T06:43:59.058Z,101764.06
2022-10-04T06:49:16.105Z,101767.66
2022-10-04T06:54:31.425Z,101764.94
2022-10-04T06:59:58.647Z,101770.97
2022-10-04T07:05:14.131Z,101782.44
2022-10-04T07:10:27.718Z,101778.03
2022-10-04T07:15:34.181Z,101788.75
2022-10-04T07:20:37.879Z,101792.94
2022-10-04T07:25:45.984Z,101798.28
2022-10-04T07:30:53.241Z,101793.94
2022-10-04T07:36:07.316Z,101802.69
2022-10-04T07:41:13.968Z,101808.72
2022-10-04T07:46:24.059Z,101808.75
2022-10-04T07:51:36.597Z,101806.00
2022-10-04T07:56:47.254Z,101823.91
2022-10-04T08:01:56.911Z,101826.31
2022-10-04T08:07:02.467Z,101825.53
2022-10-04T08:12:14.608Z,101833.38
2022-10-04T08:17:28.375Z,101833.31
2022-10-04T08:23:01.277Z,101836.81
2022-10-04T08:28:14.674Z,101829.31
2022-10-04T08:33:26.663Z,101831.91
2022-10-04T08:38:42.086Z,101843.81
2022-10-04T08:44:20.033Z,101836.50
2022-10-04T08:49:46.598Z,101848.97
2022-10-04T08:55:20.778Z,101854.06
2022-10-04T09:00:31.717Z,101847.81
2022-10-04T09:05:57.511Z,101838.63
2022-10-04T09:11:19.772Z,101842.91
2022-10-04T09:16:33.691Z,101844.28
2022-10-04T09:21:50.347Z,101838.59
2022-10-04T09:27:00.873Z,101836.53
2022-10-04T09:32:36.068Z,101839.66
2022-10-04T09:37:59.603Z,101834.59
2022-10-04T09:43:41.752Z,101850.84
2022-10-04T09:48:55.379Z,101843.34
2022-10-04T09:54:20.066Z,101832.16
2022-10-04T09:59:48.420Z,101834.59
2022-10-04T10:05:08.735Z,101829.28
2022-10-04T10:10:22.591Z,101819.91
2022-10-04T10:15:33.850Z,101829.25
2022-10-04T10:21:10.946Z,101829.25
2022-10-04T10:26:33.380Z,101834.13
2022-10-04T10:31:53.766Z,101826.25
2022-10-04T10:37:07.971Z,101824.56
2022-10-04T10:42:27.034Z,101828.03
2022-10-04T10:47:44.334Z,101829.94
2022-10-04T10:53:22.905Z,101816.16
2022-10-04T10:59:05.755Z,101815.06
2022-10-04T11:04:31.315Z,101821.19
2022-10-04T11:09:53.097Z,101822.53
2022-10-04T11:15:33.500Z,101825.03
2022-10-04T11:21:00.217Z,101817.69
2022-10-04T11:26:40.692Z,101819.06
2022-10-04T11:32:15.925Z,101811.75
2022-10-04T11:37:29.517Z,101804.50
2022-10-04T11:42:51.683Z,101802.03
2022-10-04T11:48:02.845Z,101786.81
2022-10-04T11:53:28.163Z,101788.72
2022-10-04T11:58:45.958Z,101780.56
2022-10-04T12:04:27.237Z,101777.34
2022-10-04T12:09:42.220Z,101775.25
2022-10-04T12:15:01.918Z,101775.25
2022-10-04T12:20:38.861Z,101772.41
2022-10-04T12:25:54.721Z,101764.75
2022-10-04T12:31:10.956Z,101757.50
2022-10-04T12:36:28.070Z,101762.47
2022-10-04T12:41:47.732Z,101756.66
2022-10-04T12:47:01.657Z,101752.13
2022-10-04T12:52:11.245Z,101754.28
2022-10-04T12:57:40.936Z,101748.28
2022-10-04T13:03:11.369Z,101749.41
2022-10-04T13:08:25.532Z,101752.63
2022-10-04T13:14:04.661Z,101753.88
2022-10-04T13:19:16.926Z,101746.00
2022-10-04T13:24:28.440Z,101734.63
2022-10-04T13:29:37.865Z,101723.44
2022-10-04T13:34:52.489Z,101727.81
2022-10-04T13:40:25.495Z,101704.72
2022-10-04T13:45:37.702Z,101697.84
2022-10-04T13:50:58.577Z,101691.44
2022-10-04T13:56:06.405Z,101692.16
2022-10-04T14:01:41.439Z,101691.63
2022-10-04T14:07:22.821Z,101681.72
2022-10-04T14:13:09.408Z,101674.16
2022-10-04T14:18:32.766Z,101668.75
2022-10-04T14:24:19.633Z,101672.41
2022-10-04T14:29:43.888Z,101664.19
2022-10-04T14:35:00.089Z,101652.41
2022-10-04T14:40:21.524Z,101658.56
2022-10-04T14:45:38.640Z,101658.09
2022-10-04T14:50:56.308Z,101644.38
2022-10-04T14:56:16.973Z,101649.50
2022-10-04T15:01:21.370Z,101639.19
2022-10-04T15:06:35.002Z,101634.53
2022-10-04T15:12:02.347Z,101632.31
2022-10-04T15:17:10.966Z,101630.38
2022-10-04T15:22:22.999Z,101631.25
2022-10-04T15:27:49.160Z,101628.66
2022-10-04T15:33:06.099Z,101642.19
2022-10-04T15:38:23.539Z,101646.28
2022-10-04T15:43:29.065Z,101653.25
2022-10-04T15:48:49.816Z,101645.00
2022-10-04T15:54:33.367Z,101658.50
2022-10-04T15:59:46.053Z,101644.50
2022-10-04T16:05:03.435Z,101626.19
2022-10-04T16:10:19.388Z,101626.88
2022-10-04T16:15:32.760Z,101615.06
2022-10-04T16:21:04.376Z,101625.44
2022-10-04T16:26:10.402Z,101627.06
2022-10-04T16:31:41.447Z,101610.66
2022-10-04T16:36:51.021Z,101587.13
2022-10-04T16:42:00.005Z,101600.69
2022-10-04T16:47:12.783Z,101609.94
2022-10-04T16:52:37.623Z,101620.97
2022-10-04T16:57:41.386Z,101634.69
2022-10-04T17:03:12.192Z,101625.13
2022-10-04T17:08:46.986Z,101647.53
2022-10-04T17:13:56.891Z,101647.69
2022-10-04T17:19:32.051Z,101653.13
2022-10-04T17:24:46.433Z,101647.00
2022-10-04T17:30:02.674Z,101644.44
2022-10-04T17:35:16.883Z,101645.38
2022-10-04T17:40:33.591Z,101642.84
2022-10-04T17:45:52.555Z,101642.94
2022-10-04T17:51:02.239Z,101632.34
2022-10-04T17:56:06.943Z,101634.97
2022-10-04T18:01:13.471Z,101620.84
2022-10-04T18:06:25.528Z,101628.81
2022-10-04T18:11:35.801Z,101635.91
2022-10-04T18:16:50.073Z,101624.38
2022-10-04T18:21:52.744Z,101633.19
2022-10-04T18:26:58.705Z,101641.13
2022-10-04T18:32:15.281Z,101641.16
2022-10-04T18:37:21.277Z,101629.59
2022-10-04T18:42:28.286Z,101590.66
2022-10-04T18:47:36.428Z,101619.03
2022-10-04T18:52:51.036Z,101619.00
2022-10-04T18:58:02.883Z,101629.63
2022-10-04T19:03:15.784Z,101634.06
2022-10-04T19:08:31.407Z,101636.75
2022-10-04T19:13:43.532Z,101621.72
2022-10-04T19:18:58.561Z,101618.22
2022-10-04T19:24:28.929Z,101627.09
2022-10-04T19:29:44.295Z,101631.53
2022-10-04T19:35:01.827Z,101634.19
2022-10-04T19:40:09.531Z,101638.63
2022-10-04T19:45:25.807Z,101634.22
2022-10-04T19:50:36.116Z,101646.59
2022-10-04T19:55:47.459Z,101647.47
2022-10-04T20:00:50.275Z,101648.31
2022-10-04T20:05:55.447Z,101645.53
2022-10-04T20:11:14.372Z,101644.59
2022-10-04T20:16:53.766Z,101647.28
2022-10-04T20:22:27.001Z,101645.47
2022-10-04T20:28:00.621Z,101647.25
2022-10-04T20:33:02.396Z,101634.84
2022-10-04T20:38:32.963Z,101619.81
2022-10-04T20:43:53.845Z,101634.06
2022-10-04T20:48:56.102Z,101631.38
2022-10-04T20:54:00.422Z,101616.44
2022-10-04T20:59:04.311Z,101615.59
2022-10-04T21:04:13.829Z,101613.81
2022-10-04T21:09:16.828Z,101617.38
2022-10-04T21:14:23.651Z,101618.28
2022-10-04T21:19:44.241Z,101644.81
2022-10-04T21:24:55.714Z,101643.00
2022-10-04T21:29:58.794Z,101620.03
2022-10-04T21:35:00.897Z,101593.47
2022-10-04T21:40:06.071Z,101582.84
2022-10-04T21:45:08.345Z,101597.00
2022-10-04T21:50:10.550Z,101585.50
2022-10-04T21:55:14.228Z,101579.31
2022-10-04T22:00:15.884Z,101580.16
2022-10-04T22:05:18.101Z,101574.81
2022-10-04T22:10:21.296Z,101565.06
2022-10-04T22:15:25.562Z,101566.81
2022-10-04T22:20:27.827Z,101561.47
2022-10-04T22:25:31.353Z,101557.91
2022-10-04T22:30:34.595Z,101557.91
2022-10-04T22:35:36.500Z,101556.09
2022-10-04T22:40:40.028Z,101551.63
2022-10-04T22:45:43.279Z,101548.97
2022-10-04T22:50:45.324Z,101537.38
2022-10-04T22:55:49.932Z,101532.88
2022-10-04T23:00:51.911Z,101525.81
2022-10-04T23:05:54.103Z,101526.69
2022-10-04T23:10:58.311Z,101524.91
2022-10-04T23:16:07.115Z,101533.72
2022-10-04T23:21:19.677Z,101525.72
2022-10-04T23:26:25.617Z,101535.38
2022-10-04T23:31:27.915Z,101522.06
2022-10-04T23:36:30.888Z,101515.78
2022-10-04T23:41:34.210Z,101518.31
2022-10-04T23:46:36.295Z,101515.56
2022-10-04T23:51:38.539Z,101516.34
2022-10-04T23:56:43.295Z,101524.22
